Sumari Climatol˛gic Mensual del mes 5 del any 2008
Les temperatures estan en ║C, la humitat relativa en %
La plutja en l/m^2, y el vent en m/s.
Data T. Mitja T.Max H.T.Max T. Min. H.T. Min. P. Reixiu Sensasiˇ fred Sensasiˇ Xafogor Plutja Vel. Vent Ratxa H. Ratxa Dir. Ratxa Dir. Dominant Pressiˇ Mitja Hum.
1/5/2008 14, 14,2 23:20 13,6 23:50 9,7 21,6 29,89 0,0 ,29 1,04 23:50:00 E E 1017,3 75,7
2/5/2008 16, 22,4 15:20 10,9 3:0 8,5 20,5 27,91 0,0 1,37 8,50 16:00:00 N NE 1019,5 61,5
3/5/2008 17,4 25,3 15:0 10,6 7:0 5, 21,8 24,38 0,0 1,17 6,98 16:00:00 NE NE 1020,7 44,1
4/5/2008 20,3 28,6 16:30 12,5 6:20 4,2 23,8 24,59 0,0 1,20 7,24 21:50:00 NE E 1018,8 34,8
5/5/2008 20,4 28,6 16:30 14,1 4:40 3,4 24, 24,13 0,0 1,14 9,38 15:30:00 N N 1018,1 32,5
6/5/2008 18,6 24, 15:20 13,9 6:50 7,4 22,2 26,72 0,0 1,46 8,48 16:30:00 N NE 1016,7 48,3
7/5/2008 16,2 20,6 14:50 13,2 4:40 11,6 19,6 31,74 0,0 2,12 11,16 15:50:00 NE NE 1015,5 74,4
8/5/2008 13,8 15,2 0:0 12,5 21:20 12,2 18,5 33,92 53,3 1,59 7,92 3:50:00 NE N 1012,4 90,4
9/5/2008 13,4 15,6 16:0 12, 3:0 11,5 20,4 32,87 9,0 ,56 4,52 15:50:00 NE NE 1009, 88,
10/5/2008 13,6 18,8 13:0 11,1 18:20 8, 18,2 27,70 5,9 1,69 14,02 15:10:00 S S 1005,7 69,
11/5/2008 11,8 15,3 18:10 10, 8:0 8,5 17,8 29,07 3,1 1,16 10,84 19:10:00 N N 1009,8 80,2
12/5/2008 15,4 20,7 17:10 11,4 5:30 8,7 20,6 28,21 1,0 1,04 9,96 0:30:00 NO NE 1014,1 64,8
13/5/2008 15,9 21,7 18:50 11, 4:20 10, 21,4 29,74 0,7 ,81 6,88 16:40:00 SO S 1014,5 68,2
14/5/2008 17,8 24,7 15:40 12,6 7:0 11,3 22,5 31,02 1,1 ,90 9,34 16:30:00 N S 1012,6 66,1
15/5/2008 18,7 24,3 15:40 14,3 7:20 11, 23,2 30,51 1,6 ,85 5,78 18:40:00 O SE 1011,1 61,1
16/5/2008 18,9 26, 13:50 14,2 6:40 11,7 23,2 31,26 0,4 ,91 9,58 18:10:00 O S 1007,9 63,2
17/5/2008 17,2 22,7 12:20 14, 6:10 11,3 21,9 31,12 2,0 1,00 8,30 16:30:00 NO S 1008,5 68,7
18/5/2008 15,3 21,9 13:10 12,5 5:20 10,9 20,5 31,05 0,9 1,07 13,20 13:50:00 O S 1008,3 75,1
19/5/2008 14,2 18,4 14:20 11,1 4:10 8,7 18,7 28,41 9,7 1,65 13,58 14:40:00 SO S 1007,2 69,7
20/5/2008 18,3 24,3 18:20 12,2 6:0 6,7 20,9 26,10 0,0 2,52 11,24 16:00:00 SO SO 1010,4 46,9
23/5/2008 24,3 29,4 16:40 18, 23:40 12,2 26,9 32,09 0,5 1,02 9,68 18:50:00 SE NE 1009,1 47,1
24/5/2008 20,1 26,1 15:50 14,6 7:30 9,4 23,4 28,89 0,3 1,49 11,08 17:40:00 SE S 1007,4 50,3
25/5/2008 15,9 19,6 18:50 13,3 6:50 6,6 19,8 25,73 1,0 1,76 20,54 14:00:00 SE S 1006,6 54,2
26/5/2008 17,2 22,7 15:10 12,7 7:10 9,4 22,7 28,79 0,3 ,57 5,08 13:40:00 SO SE 1007,9 60,5
27/5/2008 17,5 21,8 14:0 14,7 6:0 8,6 21,7 27,89 0,0 1,30 12,64 19:50:00 SE S 1005,5 56,1
28/5/2008 16,7 22,7 15:30 12,9 6:40 9,1 21,3 28,46 6,8 1,15 7,98 17:30:00 S S 1010,2 61,1
30/5/2008 19,3 24,6 13:50 15,2 6:20 11,7 23,4 31,21 29,7 1,02 8,38 16:50:00 N S 1012,3 61,4